< < Back
Terminal Aerodrome Forecast


Current Version              Previous Versions:   1  2  3  4  5  6  7  8  9  

Terminal Aerodrome Forecast

164
FTUS42 KGSP 011729
TAFCLT
TAF
KCLT 011729Z 0118/0218 34004KT P6SM FEW070 SCT250
     FM020200 33003KT P6SM FEW250
     FM020900 03007KT P6SM FEW250=

Latest METAR

070
SAUS70 KWBC 020000 RRC
MTRCLT
METAR KCLT 012352Z 35005KT 10SM FEW085 30/10 A2990 RMK AO2 SLP116
T03000100 10344 20300 55003


USA.gov is the U.S. government's official web portal to all federal, state and local government web resources and services.